createdAt,value
2022-10-18T00:02:03.345Z,5.00
2022-10-18T00:04:29.802Z,5.15
2022-10-18T00:06:56.343Z,4.88
2022-10-18T00:09:22.747Z,5.35
2022-10-18T00:11:49.334Z,4.65
2022-10-18T00:14:15.877Z,4.88
2022-10-18T00:16:42.246Z,6.07
2022-10-18T00:19:08.661Z,5.15
2022-10-18T00:21:35.195Z,5.25
2022-10-18T00:24:01.744Z,5.70
2022-10-18T00:26:29.694Z,7.32
2022-10-18T00:29:02.441Z,5.80
2022-10-18T00:31:30.773Z,6.10
2022-10-18T00:33:59.807Z,7.18
2022-10-18T00:36:28.712Z,7.05
2022-10-18T00:38:55.253Z,6.20
2022-10-18T00:41:24.968Z,6.78
2022-10-18T00:43:55.041Z,6.25
2022-10-18T00:46:21.943Z,6.75
2022-10-18T00:48:48.923Z,5.85
2022-10-18T00:51:18.907Z,6.38
2022-10-18T00:53:45.746Z,6.22
2022-10-18T00:56:13.208Z,6.13
2022-10-18T00:58:40.079Z,6.80
2022-10-18T01:01:06.432Z,6.43
2022-10-18T01:03:33.152Z,6.32
2022-10-18T01:05:59.567Z,6.60
2022-10-18T01:08:45.903Z,6.35
2022-10-18T01:11:24.172Z,6.22
2022-10-18T01:13:53.471Z,6.30
2022-10-18T01:16:29.284Z,6.45
2022-10-18T01:18:58.659Z,6.18
2022-10-18T01:21:46.287Z,6.35
2022-10-18T01:24:25.621Z,6.20
2022-10-18T01:27:06.939Z,5.85
2022-10-18T01:32:04.064Z,6.20
2022-10-18T01:34:35.656Z,6.90
2022-10-18T01:37:05.164Z,6.47
2022-10-18T01:39:36.346Z,6.80
2022-10-18T01:42:06.078Z,6.70
2022-10-18T01:44:34.858Z,6.25
2022-10-18T01:47:01.272Z,6.63
2022-10-18T01:49:27.621Z,6.70
2022-10-18T01:51:54.062Z,5.80
2022-10-18T01:54:28.723Z,5.57
2022-10-18T01:57:04.562Z,6.10
2022-10-18T01:59:53.791Z,5.47
2022-10-18T02:02:54.273Z,5.40
2022-10-18T02:05:44.598Z,5.65
2022-10-18T02:08:36.576Z,4.93
2022-10-18T02:11:05.673Z,6.07
2022-10-18T02:13:47.784Z,5.38
2022-10-18T02:16:18.989Z,5.68
2022-10-18T02:21:19.469Z,5.40
2022-10-18T02:23:47.060Z,5.88
2022-10-18T02:26:15.032Z,5.20
2022-10-18T02:28:41.916Z,5.88
2022-10-18T02:31:32.773Z,5.07
2022-10-18T02:34:06.894Z,5.82
2022-10-18T02:36:37.800Z,5.22
2022-10-18T02:39:11.328Z,5.63
2022-10-18T02:41:38.000Z,5.28
2022-10-18T02:44:04.555Z,5.78
2022-10-18T02:46:30.952Z,5.60
2022-10-18T02:48:57.379Z,6.05
2022-10-18T02:51:23.789Z,6.00
2022-10-18T02:53:50.190Z,5.55
2022-10-18T02:56:16.686Z,5.75
2022-10-18T02:58:43.080Z,5.70
2022-10-18T03:01:09.525Z,5.55
2022-10-18T03:03:36.072Z,6.00
2022-10-18T03:06:02.447Z,5.60
2022-10-18T03:08:29.798Z,5.75
2022-10-18T03:10:56.204Z,6.30
2022-10-18T03:13:22.663Z,6.50
2022-10-18T03:15:49.129Z,6.35
2022-10-18T03:18:15.652Z,6.43
2022-10-18T03:20:42.566Z,6.70
2022-10-18T03:23:09.251Z,8.38
2022-10-18T03:25:35.693Z,9.30
2022-10-18T03:28:02.105Z,11.10
2022-10-18T03:30:28.499Z,11.05
2022-10-18T03:32:54.839Z,13.38
2022-10-18T03:35:21.405Z,12.90
2022-10-18T03:37:47.945Z,14.48
2022-10-18T03:40:14.441Z,12.90
2022-10-18T03:42:40.784Z,14.02
2022-10-18T03:45:07.714Z,15.00
2022-10-18T03:47:34.204Z,13.52
2022-10-18T03:50:00.575Z,13.52
2022-10-18T03:52:26.980Z,13.60
2022-10-18T03:54:53.453Z,14.23
2022-10-18T03:57:19.887Z,15.18
2022-10-18T03:59:46.264Z,13.70
2022-10-18T04:02:12.611Z,13.57
2022-10-18T04:04:38.985Z,14.38
2022-10-18T04:07:05.378Z,12.95
2022-10-18T04:09:31.872Z,12.98
2022-10-18T04:11:58.324Z,11.80
2022-10-18T04:14:24.758Z,12.90
2022-10-18T04:16:51.119Z,12.70
2022-10-18T04:19:17.492Z,11.40
2022-10-18T04:21:43.941Z,11.35
2022-10-18T04:24:10.365Z,11.30
2022-10-18T04:26:36.953Z,12.32
2022-10-18T04:29:03.625Z,11.93
2022-10-18T04:31:30.057Z,11.65
2022-10-18T04:33:56.428Z,12.27
2022-10-18T04:36:22.768Z,12.68
2022-10-18T04:38:49.135Z,11.65
2022-10-18T04:41:15.628Z,11.75
2022-10-18T04:43:42.068Z,11.95
2022-10-18T04:46:08.540Z,11.63
2022-10-18T04:48:35.029Z,11.45
2022-10-18T04:51:01.513Z,11.10
2022-10-18T04:53:27.861Z,9.55
2022-10-18T04:55:54.301Z,11.25
2022-10-18T04:58:20.676Z,11.10
2022-10-18T05:00:47.759Z,10.77
2022-10-18T05:03:14.927Z,10.50
2022-10-18T05:06:00.954Z,10.85
2022-10-18T05:08:28.221Z,13.40
2022-10-18T05:10:54.672Z,13.55
2022-10-18T05:13:21.119Z,12.57
2022-10-18T05:15:47.681Z,12.45
2022-10-18T05:18:14.078Z,12.07
2022-10-18T05:20:40.497Z,11.85
2022-10-18T05:23:10.620Z,12.32
2022-10-18T05:25:41.229Z,11.95
2022-10-18T05:28:11.126Z,10.77
2022-10-18T05:30:53.797Z,11.30
2022-10-18T05:33:20.216Z,11.27
2022-10-18T05:35:46.592Z,9.82
2022-10-18T05:38:12.986Z,7.93
2022-10-18T05:40:39.605Z,7.18
2022-10-18T05:43:06.014Z,7.18
2022-10-18T05:45:32.381Z,7.20
2022-10-18T05:47:58.786Z,5.65
2022-10-18T05:50:25.150Z,5.97
2022-10-18T05:52:51.512Z,5.70
2022-10-18T05:55:17.880Z,5.93
2022-10-18T05:57:49.442Z,6.68
2022-10-18T06:00:15.917Z,5.90
2022-10-18T06:02:42.463Z,6.28
2022-10-18T06:05:09.110Z,5.60
2022-10-18T06:07:35.620Z,5.50
2022-10-18T06:10:02.043Z,4.80
2022-10-18T06:12:28.418Z,5.72
2022-10-18T06:14:54.821Z,4.70
2022-10-18T06:17:21.253Z,4.82
2022-10-18T06:19:47.708Z,5.68
2022-10-18T06:22:14.092Z,4.43
2022-10-18T06:24:40.460Z,4.55
2022-10-18T06:27:09.246Z,4.53
2022-10-18T06:29:37.000Z,5.30
2022-10-18T06:32:04.139Z,4.78
2022-10-18T06:34:30.962Z,5.85
2022-10-18T06:36:58.852Z,9.88
2022-10-18T06:39:25.963Z,6.88
2022-10-18T06:41:53.094Z,6.78
2022-10-18T06:44:21.022Z,6.75
2022-10-18T06:46:48.795Z,6.25
2022-10-18T06:49:18.958Z,5.95
2022-10-18T06:51:46.134Z,5.68
2022-10-18T06:54:18.031Z,5.15
2022-10-18T06:56:45.338Z,5.40
2022-10-18T06:59:11.774Z,5.30
2022-10-18T07:01:38.310Z,5.82
2022-10-18T07:04:04.857Z,5.53
2022-10-18T07:06:31.367Z,6.43
2022-10-18T07:08:57.778Z,5.88
2022-10-18T07:11:26.507Z,6.85
2022-10-18T07:14:00.730Z,6.38
2022-10-18T07:16:27.133Z,6.65
2022-10-18T07:18:53.538Z,4.82
2022-10-18T07:21:23.618Z,5.35
2022-10-18T07:23:51.135Z,5.82
2022-10-18T07:26:23.481Z,9.77
2022-10-18T07:28:55.704Z,4.88
2022-10-18T07:31:23.086Z,3.35
2022-10-18T07:33:49.543Z,3.92
2022-10-18T07:36:16.117Z,4.22
2022-10-18T07:38:42.708Z,4.10
2022-10-18T07:41:11.722Z,3.40
2022-10-18T07:43:42.067Z,3.50
2022-10-18T07:46:08.572Z,3.58
2022-10-18T07:48:34.964Z,3.70
2022-10-18T07:51:02.044Z,3.88
2022-10-18T07:53:29.277Z,3.53
2022-10-18T07:56:01.378Z,3.53
2022-10-18T07:58:31.648Z,3.60
2022-10-18T08:01:01.572Z,3.53
2022-10-18T08:03:27.984Z,3.33
2022-10-18T08:05:55.278Z,3.22
2022-10-18T08:08:23.168Z,2.90
2022-10-18T08:10:49.567Z,3.00
2022-10-18T08:13:16.154Z,2.90
2022-10-18T08:15:42.772Z,3.28
2022-10-18T08:18:09.383Z,2.90
2022-10-18T08:20:36.917Z,2.72
2022-10-18T08:23:06.202Z,3.50
2022-10-18T08:25:32.859Z,2.60
2022-10-18T08:27:59.370Z,2.97
2022-10-18T08:30:25.825Z,3.70
2022-10-18T08:32:52.781Z,4.18
2022-10-18T08:35:19.215Z,3.40
2022-10-18T08:37:46.139Z,3.53
2022-10-18T08:40:15.866Z,3.30
2022-10-18T08:43:00.587Z,3.15
2022-10-18T08:45:41.812Z,2.92
2022-10-18T08:48:21.635Z,2.92
2022-10-18T08:50:49.770Z,2.90
2022-10-18T08:53:45.302Z,2.47
2022-10-18T08:56:15.980Z,2.90
2022-10-18T08:58:46.302Z,3.03
2022-10-18T09:01:42.065Z,3.13
2022-10-18T09:04:48.876Z,3.00
2022-10-18T09:07:15.292Z,3.05
2022-10-18T09:10:02.773Z,3.05
2022-10-18T09:12:55.611Z,2.90
2022-10-18T09:15:51.689Z,3.05
2022-10-18T09:18:24.068Z,2.90
2022-10-18T09:21:00.636Z,3.20
2022-10-18T09:23:47.979Z,3.15
2022-10-18T09:26:18.388Z,3.17
2022-10-18T09:29:23.412Z,3.30
2022-10-18T09:32:04.612Z,2.72
2022-10-18T09:34:44.779Z,2.53
2022-10-18T09:37:17.716Z,2.97
2022-10-18T09:39:45.913Z,3.00
2022-10-18T09:42:28.984Z,3.15
2022-10-18T09:45:26.785Z,3.40
2022-10-18T09:48:13.241Z,2.88
2022-10-18T09:50:44.813Z,3.15
2022-10-18T09:53:25.841Z,3.60
2022-10-18T09:58:20.440Z,2.97
2022-10-18T10:00:50.860Z,3.30
2022-10-18T10:03:17.290Z,4.13
2022-10-18T10:05:44.506Z,2.95
2022-10-18T10:08:11.581Z,3.53
2022-10-18T10:10:46.891Z,3.60
2022-10-18T10:13:22.766Z,3.65
2022-10-18T10:15:54.301Z,2.80
2022-10-18T10:18:29.798Z,3.08
2022-10-18T10:21:00.196Z,2.70
2022-10-18T10:23:30.656Z,2.97
2022-10-18T10:26:03.834Z,3.42
2022-10-18T10:28:35.064Z,3.67
2022-10-18T10:31:29.446Z,2.80
2022-10-18T10:34:28.858Z,3.53
2022-10-18T10:36:55.384Z,3.28
2022-10-18T10:39:24.422Z,3.58
2022-10-18T10:41:56.612Z,3.28
2022-10-18T10:44:32.086Z,3.28
2022-10-18T10:46:59.297Z,3.33
2022-10-18T10:49:45.247Z,3.58
2022-10-18T10:52:28.524Z,3.75
2022-10-18T10:55:33.703Z,4.32
2022-10-18T10:57:47.444Z,4.28
2022-10-18T11:00:43.617Z,4.30
2022-10-18T11:03:28.113Z,4.05
2022-10-18T11:05:57.599Z,4.07
2022-10-18T11:08:40.952Z,3.90
2022-10-18T11:11:22.222Z,4.15
2022-10-18T11:14:07.278Z,4.22
2022-10-18T11:16:56.931Z,4.47
2022-10-18T11:19:39.056Z,3.75
2022-10-18T11:22:12.273Z,4.18
2022-10-18T11:24:39.476Z,4.60
2022-10-18T11:27:14.913Z,3.55
2022-10-18T11:29:54.283Z,4.15
2022-10-18T11:32:48.396Z,3.38
2022-10-18T11:35:29.452Z,3.60
2022-10-18T11:40:49.641Z,3.75
2022-10-18T11:44:01.724Z,3.47
2022-10-18T11:46:38.422Z,3.42
2022-10-18T11:49:23.206Z,3.55
2022-10-18T11:52:09.171Z,3.60
2022-10-18T11:55:05.131Z,3.67
2022-10-18T11:57:50.600Z,3.90
2022-10-18T12:00:19.865Z,4.13
2022-10-18T12:03:21.022Z,4.20
2022-10-18T12:05:49.966Z,3.80
2022-10-18T12:08:23.330Z,3.58
2022-10-18T12:11:04.441Z,3.05
2022-10-18T12:13:38.945Z,3.15
2022-10-18T12:16:07.892Z,3.35
2022-10-18T12:18:41.712Z,3.25
2022-10-18T12:21:08.227Z,4.22
2022-10-18T12:24:18.266Z,4.15
2022-10-18T12:26:48.513Z,4.07
2022-10-18T12:29:35.207Z,3.70
2022-10-18T12:32:14.481Z,4.00
2022-10-18T12:34:49.110Z,3.03
2022-10-18T12:37:24.685Z,3.47
2022-10-18T12:40:14.539Z,3.15
2022-10-18T12:42:49.302Z,3.72
2022-10-18T12:45:34.910Z,3.40
2022-10-18T12:48:08.269Z,3.70
2022-10-18T12:50:41.198Z,3.08
2022-10-18T12:53:10.366Z,3.47
2022-10-18T12:55:44.985Z,3.05
2022-10-18T12:58:14.133Z,4.28
2022-10-18T13:00:43.488Z,3.10
2022-10-18T13:03:10.072Z,3.40
2022-10-18T13:05:53.268Z,3.53
2022-10-18T13:08:38.082Z,3.13
2022-10-18T13:11:10.652Z,3.95
2022-10-18T13:13:41.662Z,4.13
2022-10-18T13:16:22.983Z,3.67
2022-10-18T13:19:00.367Z,3.70
2022-10-18T13:21:47.240Z,3.92
2022-10-18T13:24:55.223Z,3.97
2022-10-18T13:27:42.625Z,4.50
2022-10-18T13:30:18.391Z,4.53
2022-10-18T13:33:20.128Z,4.50
2022-10-18T13:35:55.507Z,4.90
2022-10-18T13:38:34.055Z,4.60
2022-10-18T13:41:06.899Z,5.10
2022-10-18T13:43:52.643Z,5.35
2022-10-18T13:46:19.737Z,5.65
2022-10-18T13:48:50.239Z,3.90
2022-10-18T13:51:38.323Z,3.88
2022-10-18T13:54:46.625Z,4.80
2022-10-18T13:57:47.297Z,3.55
2022-10-18T14:00:48.899Z,3.75
2022-10-18T14:04:02.223Z,3.78
2022-10-18T14:06:36.090Z,4.25
2022-10-18T14:09:25.530Z,4.00
2022-10-18T14:12:28.378Z,3.58
2022-10-18T14:15:18.151Z,4.00
2022-10-18T14:17:49.086Z,3.92
2022-10-18T14:23:11.037Z,4.70
2022-10-18T14:25:38.561Z,4.68
2022-10-18T14:28:21.636Z,3.78
2022-10-18T14:30:56.277Z,4.85
2022-10-18T14:33:26.545Z,3.58
2022-10-18T14:36:19.208Z,3.92
2022-10-18T14:38:54.379Z,4.13
2022-10-18T14:41:34.884Z,4.60
2022-10-18T14:44:18.380Z,4.63
2022-10-18T14:46:58.129Z,4.15
2022-10-18T14:49:24.603Z,4.28
2022-10-18T14:51:58.280Z,4.13
2022-10-18T14:54:31.951Z,4.10
2022-10-18T14:57:00.853Z,4.03
2022-10-18T14:59:30.652Z,4.45
2022-10-18T15:02:01.116Z,4.53
2022-10-18T15:04:32.818Z,4.22
2022-10-18T15:07:01.371Z,4.60
2022-10-18T15:12:02.048Z,3.50
2022-10-18T15:14:30.173Z,4.22
2022-10-18T15:17:03.017Z,4.93
2022-10-18T15:19:35.434Z,4.78
2022-10-18T15:25:20.943Z,4.43
2022-10-18T15:27:53.272Z,4.18
2022-10-18T15:30:24.807Z,4.63
2022-10-18T15:32:57.478Z,4.10
2022-10-18T15:35:35.530Z,4.45
2022-10-18T15:38:17.290Z,3.42
2022-10-18T15:40:44.106Z,3.70
2022-10-18T15:43:22.645Z,3.70
2022-10-18T15:45:51.298Z,3.92
2022-10-18T15:48:25.076Z,4.15
2022-10-18T15:50:56.544Z,3.45
2022-10-18T15:53:23.557Z,4.07
2022-10-18T15:55:52.482Z,4.22
2022-10-18T15:58:23.220Z,4.90
2022-10-18T16:00:50.733Z,5.38
2022-10-18T16:03:19.266Z,4.78
2022-10-18T16:05:45.786Z,4.30
2022-10-18T16:08:23.446Z,4.85
2022-10-18T16:10:50.125Z,3.88
2022-10-18T16:13:17.500Z,4.45
2022-10-18T16:15:44.003Z,4.30
2022-10-18T16:18:17.016Z,4.65
2022-10-18T16:20:44.301Z,4.60
2022-10-18T16:23:29.304Z,4.35
2022-10-18T16:25:57.240Z,4.68
2022-10-18T16:28:25.699Z,5.13
2022-10-18T16:31:00.925Z,5.13
2022-10-18T16:33:27.365Z,5.57
2022-10-18T16:35:54.173Z,5.45
2022-10-18T16:38:35.481Z,7.90
2022-10-18T16:41:04.063Z,7.07
2022-10-18T16:43:31.367Z,6.47
2022-10-18T16:45:57.970Z,5.93
2022-10-18T16:48:25.348Z,6.00
2022-10-18T16:50:54.829Z,6.03
2022-10-18T16:53:25.058Z,9.85
2022-10-18T16:55:57.101Z,13.77
2022-10-18T17:00:56.144Z,13.77
2022-10-18T17:03:22.946Z,12.63
2022-10-18T17:05:49.388Z,7.55
2022-10-18T17:08:24.053Z,5.70
2022-10-18T17:10:54.857Z,6.47
2022-10-18T17:13:22.562Z,5.80
2022-10-18T17:15:50.362Z,5.10
2022-10-18T17:18:23.403Z,5.85
2022-10-18T17:20:50.221Z,6.82
2022-10-18T17:23:16.694Z,6.38
2022-10-18T17:25:58.948Z,6.30
2022-10-18T17:28:33.661Z,5.35
2022-10-18T17:31:00.096Z,5.60
2022-10-18T17:33:26.591Z,5.53
2022-10-18T17:35:53.007Z,6.28
2022-10-18T17:38:19.371Z,7.28
2022-10-18T17:40:46.272Z,8.10
2022-10-18T17:43:13.612Z,8.48
2022-10-18T17:45:51.004Z,8.13
2022-10-18T17:48:17.640Z,8.05
2022-10-18T17:50:43.989Z,8.80
2022-10-18T17:53:12.845Z,8.80
2022-10-18T17:55:39.702Z,8.40
2022-10-18T17:58:06.202Z,9.05
2022-10-18T18:00:32.757Z,10.30
2022-10-18T18:03:00.241Z,9.93
2022-10-18T18:05:31.374Z,11.07
2022-10-18T18:10:32.871Z,14.85
2022-10-18T18:12:59.241Z,14.32
2022-10-18T18:15:25.804Z,8.30
2022-10-18T18:17:57.056Z,8.70
2022-10-18T18:20:24.341Z,12.32
2022-10-18T18:22:51.794Z,11.40
2022-10-18T18:25:18.422Z,10.27
2022-10-18T18:27:44.789Z,9.45
2022-10-18T18:30:11.447Z,9.77
2022-10-18T18:32:39.523Z,9.45
2022-10-18T18:35:06.153Z,8.90
2022-10-18T18:37:32.682Z,7.07
2022-10-18T18:39:59.047Z,7.70
2022-10-18T18:42:25.435Z,7.97
2022-10-18T18:44:51.778Z,8.13
2022-10-18T18:47:21.216Z,7.85
2022-10-18T18:49:47.638Z,8.52
2022-10-18T18:52:14.008Z,9.07
2022-10-18T18:54:40.404Z,8.90
2022-10-18T18:57:06.772Z,9.30
2022-10-18T18:59:33.236Z,10.10
2022-10-18T19:01:59.966Z,9.40
2022-10-18T19:04:26.428Z,9.32
2022-10-18T19:06:52.891Z,8.55
2022-10-18T19:09:21.769Z,8.95
2022-10-18T19:11:52.741Z,8.65
2022-10-18T19:16:54.268Z,9.80
2022-10-18T19:19:23.420Z,8.63
2022-10-18T19:21:52.213Z,9.32
2022-10-18T19:24:19.876Z,9.07
2022-10-18T19:26:50.416Z,9.35
2022-10-18T19:29:30.636Z,9.25
2022-10-18T19:31:59.720Z,9.63
2022-10-18T19:34:28.531Z,8.82
2022-10-18T19:36:55.481Z,9.50
2022-10-18T19:39:30.319Z,9.13
2022-10-18T19:41:58.829Z,8.77
2022-10-18T19:44:28.798Z,8.50
2022-10-18T19:46:55.464Z,9.18
2022-10-18T19:49:21.972Z,8.95
2022-10-18T19:51:48.463Z,9.45
2022-10-18T19:54:15.990Z,9.40
2022-10-18T19:56:43.029Z,8.85
2022-10-18T19:59:11.042Z,9.20
2022-10-18T20:01:37.591Z,9.73
2022-10-18T20:04:04.829Z,9.07
2022-10-18T20:06:31.865Z,9.32
2022-10-18T20:08:58.430Z,9.90
2022-10-18T20:11:27.125Z,9.52
2022-10-18T20:13:54.143Z,11.23
2022-10-18T20:16:27.833Z,10.80
2022-10-18T20:18:59.602Z,12.23
2022-10-18T20:21:27.337Z,11.40
2022-10-18T20:23:54.398Z,10.82
2022-10-18T20:26:21.628Z,12.57
2022-10-18T20:28:55.821Z,11.93
2022-10-18T20:31:35.422Z,11.55
2022-10-18T20:34:04.704Z,11.40
2022-10-18T20:36:32.557Z,12.80
2022-10-18T20:38:59.645Z,11.80
2022-10-18T20:41:35.950Z,11.95
2022-10-18T20:44:05.203Z,11.57
2022-10-18T20:46:34.057Z,10.40
2022-10-18T20:49:01.078Z,11.98
2022-10-18T20:51:27.840Z,11.00
2022-10-18T20:53:54.636Z,10.15
2022-10-18T20:56:23.950Z,11.35
2022-10-18T20:58:52.008Z,10.23
2022-10-18T21:01:24.082Z,10.13
2022-10-18T21:03:52.253Z,10.23
2022-10-18T21:06:28.189Z,9.05
2022-10-18T21:09:05.560Z,9.32
2022-10-18T21:11:36.355Z,9.10
2022-10-18T21:14:06.937Z,9.13
2022-10-18T21:16:35.654Z,9.30
2022-10-18T21:19:06.367Z,10.60
2022-10-18T21:21:33.051Z,11.00
2022-10-18T21:24:02.501Z,11.50
2022-10-18T21:26:32.014Z,9.95
2022-10-18T21:28:59.124Z,9.90
2022-10-18T21:31:28.394Z,10.32
2022-10-18T21:33:57.323Z,11.45
2022-10-18T21:36:24.644Z,11.43
2022-10-18T21:38:52.085Z,11.95
2022-10-18T21:41:20.928Z,11.75
2022-10-18T21:43:49.746Z,11.20
2022-10-18T21:46:18.497Z,11.82
2022-10-18T21:48:49.980Z,11.57
2022-10-18T21:51:18.684Z,10.65
2022-10-18T21:53:46.902Z,11.63
2022-10-18T21:56:15.838Z,10.73
2022-10-18T21:58:43.010Z,12.50
2022-10-18T22:01:15.021Z,11.00
2022-10-18T22:03:42.264Z,11.10
2022-10-18T22:06:14.030Z,11.95
2022-10-18T22:08:42.635Z,11.65
2022-10-18T22:11:09.809Z,11.68
2022-10-18T22:13:36.250Z,12.93
2022-10-18T22:16:04.353Z,11.60
2022-10-18T22:18:32.175Z,11.50
2022-10-18T22:21:01.463Z,11.38
2022-10-18T22:23:32.943Z,12.20
2022-10-18T22:26:08.948Z,11.82
2022-10-18T22:28:36.053Z,12.25
2022-10-18T22:31:02.798Z,12.23
2022-10-18T22:33:29.668Z,11.73
2022-10-18T22:35:56.215Z,13.32
2022-10-18T22:38:22.795Z,12.32
2022-10-18T22:40:49.240Z,12.55
2022-10-18T22:43:15.585Z,10.80
2022-10-18T22:45:42.102Z,11.93
2022-10-18T22:48:08.458Z,11.27
2022-10-18T22:50:34.833Z,11.27
2022-10-18T22:53:01.199Z,10.70
2022-10-18T22:55:27.552Z,11.30
2022-10-18T22:57:55.453Z,10.38
2022-10-18T23:00:21.852Z,10.25
2022-10-18T23:02:51.491Z,9.35
2022-10-18T23:05:17.974Z,8.32
2022-10-18T23:07:49.078Z,9.27
2022-10-18T23:10:15.789Z,7.45
2022-10-18T23:12:42.370Z,5.00
2022-10-18T23:15:09.274Z,6.90
2022-10-18T23:17:36.129Z,8.23
2022-10-18T23:20:03.251Z,9.02
2022-10-18T23:22:29.657Z,8.63
2022-10-18T23:24:56.038Z,7.53
2022-10-18T23:27:22.446Z,8.77
2022-10-18T23:29:48.805Z,8.95
2022-10-18T23:32:15.157Z,8.98
2022-10-18T23:34:41.501Z,9.60
2022-10-18T23:37:07.885Z,8.82
2022-10-18T23:39:34.255Z,7.63
2022-10-18T23:42:00.673Z,8.43
2022-10-18T23:44:27.029Z,9.23
2022-10-18T23:46:53.402Z,8.65
2022-10-18T23:49:19.781Z,6.43
2022-10-18T23:51:46.170Z,6.75
2022-10-18T23:54:12.646Z,7.63
2022-10-18T23:56:38.997Z,8.57
2022-10-18T23:59:05.337Z,8.57
